Time;durP1;ratioP1;P1;durP2;ratioP2;P2;SDS_P1;SDS_P2;PMS_P1;PMS_P2;Temp;Humidity;BMP_temperature;BMP_pressure;BME280_temperature;BME280_humidity;BME280_pressure;Samples;Min_cycle;Max_cycle;Signal;HPM_P1;HPM_P2
2022/03/02 00:00:37;;;;;;;8.13;4.75;;;-3.80;99.90;;;;;;4838099;29;20045;-79
2022/03/02 00:03:05;;;;;;;8.95;8.05;;;-3.80;99.90;;;;;;4838784;29;20069;-79
2022/03/02 00:05:33;;;;;;;9.52;5.85;;;-3.90;99.90;;;;;;4837840;29;20064;-79
2022/03/02 00:08:01;;;;;;;8.57;5.57;;;-4.10;99.90;;;;;;4837936;29;20404;-79
2022/03/02 00:10:29;;;;;;;6.95;4.50;;;-4.20;99.90;;;;;;4837302;29;20416;-79
2022/03/02 00:12:57;;;;;;;11.70;5.70;;;-4.20;99.90;;;;;;4837915;29;20848;-79
2022/03/02 00:15:25;;;;;;;6.88;4.78;;;-4.10;99.90;;;;;;4838168;29;20057;-81
2022/03/02 00:17:52;;;;;;;8.27;4.88;;;-4.10;99.90;;;;;;4822707;29;20046;-79
2022/03/02 00:20:20;;;;;;;5.18;4.22;;;-4.10;99.90;;;;;;4839348;29;20053;-79
2022/03/02 00:22:52;;;;;;;6.70;5.93;;;-4.20;99.90;;;;;;4856332;29;20065;-79
2022/03/02 00:25:22;;;;;;;11.32;4.80;;;-4.20;99.90;;;;;;4855493;29;20061;-79
2022/03/02 00:27:54;;;;;;;7.82;5.60;;;-4.10;99.90;;;;;;4855690;29;20056;-79
2022/03/02 00:30:23;;;;;;;5.70;5.15;;;-4.00;99.90;;;;;;4856460;29;20069;-79
2022/03/02 00:32:50;;;;;;;9.20;4.47;;;-3.90;99.90;;;;;;4838938;29;20423;-79
2022/03/02 00:35:18;;;;;;;5.90;5.13;;;-3.80;99.90;;;;;;4856233;29;20057;-79
2022/03/02 00:37:47;;;;;;;6.32;5.72;;;-3.70;99.90;;;;;;4855449;29;20050;-79
2022/03/02 00:40:19;;;;;;;9.55;8.60;;;-3.60;99.90;;;;;;4855173;29;20042;-79
2022/03/02 00:42:47;;;;;;;8.00;5.32;;;-3.70;99.90;;;;;;4856084;29;20057;-79
2022/03/02 00:45:14;;;;;;;6.65;5.00;;;-3.90;99.90;;;;;;4855642;29;20060;-79
2022/03/02 00:47:42;;;;;;;4.97;4.47;;;-4.20;99.90;;;;;;4855259;29;20061;-79
2022/03/02 00:50:11;;;;;;;5.93;5.38;;;-4.40;99.90;;;;;;4838999;29;20057;-78
2022/03/02 00:52:40;;;;;;;10.75;6.43;;;-4.40;99.90;;;;;;4855486;29;20049;-79
2022/03/02 00:55:08;;;;;;;6.97;5.25;;;-4.30;99.90;;;;;;4855144;29;20053;-79
2022/03/02 00:57:37;;;;;;;5.78;5.18;;;-4.20;99.90;;;;;;4842312;29;20050;-79
2022/03/02 01:00:07;;;;;;;6.22;4.55;;;-4.10;99.90;;;;;;4836605;29;20050;-78
2022/03/02 01:02:34;;;;;;;5.18;4.78;;;-4.00;99.90;;;;;;4836885;29;20803;-78
2022/03/02 01:05:04;;;;;;;8.77;4.68;;;-4.30;99.90;;;;;;4836565;29;20698;-79
2022/03/02 01:07:32;;;;;;;7.63;6.78;;;-4.60;99.90;;;;;;4820056;29;20057;-78
2022/03/02 01:10:01;;;;;;;9.70;4.75;;;-4.70;99.90;;;;;;4819820;29;20058;-78
2022/03/02 01:12:30;;;;;;;15.90;7.13;;;-4.80;99.90;;;;;;4836656;29;20059;-79
2022/03/02 01:15:04;;;;;;;8.00;5.13;;;-4.70;99.90;;;;;;4820511;29;20580;-79
2022/03/02 01:17:32;;;;;;;6.82;5.47;;;-4.50;99.90;;;;;;4836517;29;20054;-79
2022/03/02 01:20:00;;;;;;;4.47;4.07;;;-4.30;99.90;;;;;;4836016;29;20049;-79
2022/03/02 01:22:28;;;;;;;6.15;4.80;;;-4.30;99.90;;;;;;4836906;29;20058;-79
2022/03/02 01:24:56;;;;;;;5.45;4.82;;;-4.30;99.90;;;;;;4835785;29;20046;-79
2022/03/02 01:27:24;;;;;;;5.43;4.32;;;-4.50;99.90;;;;;;4836499;29;20054;-78
2022/03/02 01:29:52;;;;;;;9.52;7.43;;;-4.70;99.90;;;;;;4835458;29;20058;-79
2022/03/02 01:32:20;;;;;;;13.50;5.63;;;-4.80;99.90;;;;;;4835188;29;20065;-79
2022/03/02 01:34:48;;;;;;;7.25;6.65;;;-4.70;99.90;;;;;;4843337;29;20050;-79
2022/03/02 01:37:17;;;;;;;8.30;5.68;;;-4.70;99.90;;;;;;4854390;29;20060;-79
2022/03/02 01:39:45;;;;;;;10.98;6.47;;;-4.60;99.90;;;;;;4853121;29;20049;-79
2022/03/02 01:42:12;;;;;;;7.32;6.63;;;-4.70;99.90;;;;;;4854205;29;20411;-79
2022/03/02 01:44:40;;;;;;;7.13;6.47;;;-4.60;99.90;;;;;;4854389;29;20053;-79
2022/03/02 01:47:08;;;;;;;5.60;5.05;;;-4.60;99.90;;;;;;4854574;29;20056;-79
2022/03/02 01:49:36;;;;;;;9.35;6.10;;;-4.70;99.90;;;;;;4853568;29;20046;-79
2022/03/02 01:52:04;;;;;;;5.53;5.07;;;-4.80;99.90;;;;;;4854401;29;20383;-79
2022/03/02 01:54:32;;;;;;;4.60;4.22;;;-4.80;99.90;;;;;;4854056;29;20479;-79
2022/03/02 01:57:00;;;;;;;10.68;5.07;;;-4.70;99.90;;;;;;4846645;29;20053;-79
2022/03/02 01:59:29;;;;;;;10.75;4.95;;;-4.60;99.90;;;;;;4841978;29;20067;-79
2022/03/02 02:01:57;;;;;;;5.10;4.63;;;-4.60;99.90;;;;;;4824377;29;20053;-79
2022/03/02 02:04:25;;;;;;;5.72;4.65;;;-4.70;99.90;;;;;;4844964;29;20456;-79
2022/03/02 02:06:53;;;;;;;7.10;6.50;;;-5.10;99.90;;;;;;4837702;29;20409;-79
2022/03/02 02:09:21;;;;;;;12.38;7.25;;;-5.20;99.90;;;;;;4854078;29;20056;-79
2022/03/02 02:11:49;;;;;;;8.38;6.57;;;-5.30;99.90;;;;;;4857237;29;20064;-79
2022/03/02 02:14:17;;;;;;;7.30;4.57;;;-5.20;99.90;;;;;;4858377;29;20053;-79
2022/03/02 02:16:44;;;;;;;7.72;5.78;;;-5.20;99.90;;;;;;4857960;29;20061;-79
2022/03/02 02:19:12;;;;;;;5.30;4.07;;;-5.40;99.90;;;;;;4858135;29;20057;-78
2022/03/02 02:21:40;;;;;;;11.20;5.57;;;-5.50;99.90;;;;;;4857379;29;20049;-79
2022/03/02 02:24:09;;;;;;;8.98;8.10;;;-5.50;99.90;;;;;;4840887;29;20049;-79
2022/03/02 02:26:36;;;;;;;7.50;4.32;;;-5.80;99.90;;;;;;4857365;29;20684;-79
2022/03/02 02:29:05;;;;;;;21.58;6.07;;;-5.80;99.90;;;;;;4856898;29;20393;-79
2022/03/02 02:31:34;;;;;;;8.70;6.00;;;-5.70;99.90;;;;;;4857466;29;20061;-78
2022/03/02 02:34:08;;;;;;;5.40;4.60;;;-5.60;99.90;;;;;;4826657;29;20049;-79
2022/03/02 02:36:38;;;;;;;7.82;4.53;;;-5.50;99.90;;;;;;4857119;29;20056;-79
2022/03/02 02:39:06;;;;;;;4.50;4.25;;;-5.40;99.90;;;;;;4857236;29;20054;-79
2022/03/02 02:41:33;;;;;;;9.50;5.45;;;-4.90;99.90;;;;;;4856465;29;20483;-79
2022/03/02 02:44:01;;;;;;;7.28;4.90;;;-4.50;99.90;;;;;;4841647;29;20385;-79
2022/03/02 02:46:29;;;;;;;8.13;5.10;;;-4.30;99.90;;;;;;4839234;29;20046;-79
2022/03/02 02:48:57;;;;;;;6.85;5.95;;;-4.30;99.90;;;;;;4838359;29;20066;-79
2022/03/02 02:51:25;;;;;;;8.98;5.38;;;-4.70;99.90;;;;;;4839045;29;20058;-79
2022/03/02 02:53:52;;;;;;;6.93;6.20;;;-5.20;99.90;;;;;;4838467;29;20053;-79
2022/03/02 02:56:21;;;;;;;9.35;7.32;;;-5.40;99.90;;;;;;4839859;29;20054;-79
2022/03/02 02:58:49;;;;;;;6.93;4.97;;;-5.60;99.90;;;;;;4856924;29;20050;-79
2022/03/02 03:01:17;;;;;;;6.68;5.93;;;-5.70;99.90;;;;;;4856312;29;20049;-79
2022/03/02 03:03:46;;;;;;;10.70;6.57;;;-5.50;99.90;;;;;;4857125;29;20053;-79
2022/03/02 03:06:14;;;;;;;9.77;5.32;;;-5.30;99.90;;;;;;4857218;29;20056;-79
2022/03/02 03:08:42;;;;;;;10.23;6.53;;;-5.20;99.90;;;;;;4856175;29;20053;-79
2022/03/02 03:11:09;;;;;;;11.20;6.63;;;-5.20;99.90;;;;;;4856553;29;20057;-79
2022/03/02 03:13:37;;;;;;;6.38;5.25;;;-5.10;99.90;;;;;;4856462;29;20419;-79
2022/03/02 03:16:05;;;;;;;4.93;4.13;;;-5.00;99.90;;;;;;4856516;29;20045;-79
2022/03/02 03:18:32;;;;;;;6.00;5.35;;;-5.10;99.90;;;;;;4856821;29;20049;-79
2022/03/02 03:21:20;;;;;;;4.40;4.00;;;-5.30;99.90;;;;;;4855889;29;20050;-79
2022/03/02 03:24:42;;;;;;;7.93;6.05;;;-5.60;99.90;;;;;;4839243;29;20042;-79
2022/03/02 03:27:53;;;;;;;5.60;4.75;;;-5.90;99.90;;;;;;4856609;29;20053;-79
2022/03/02 03:31:08;;;;;;;7.97;5.65;;;-5.70;99.90;;;;;;4843998;29;20061;-79
2022/03/02 03:34:33;;;;;;;10.30;6.68;;;-5.60;99.90;;;;;;4820134;29;20045;-79
2022/03/02 03:37:34;;;;;;;;;;;-5.40;99.90;;;;;;4821439;29;20049;-79
2022/03/02 03:40:04;;;;;;;4.88;4.28;;;-5.50;99.90;;;;;;4836796;29;19951;-79
2022/03/02 03:42:32;;;;;;;4.63;4.30;;;-5.60;99.90;;;;;;4842352;29;20049;-79
2022/03/02 03:45:00;;;;;;;6.63;4.70;;;-5.70;99.90;;;;;;4856037;29;20060;-79
2022/03/02 03:47:27;;;;;;;5.18;4.70;;;-5.60;99.90;;;;;;4857016;29;20053;-79
2022/03/02 03:49:55;;;;;;;6.35;4.88;;;-5.50;99.90;;;;;;4855446;29;20062;-79
2022/03/02 03:52:22;;;;;;;5.60;5.15;;;-5.60;99.90;;;;;;4855942;29;20053;-79
2022/03/02 03:54:50;;;;;;;7.38;4.78;;;-5.80;99.90;;;;;;4856028;29;20054;-79
2022/03/02 03:57:18;;;;;;;5.05;4.65;;;-6.00;99.90;;;;;;4846493;29;20624;-79
2022/03/02 03:59:46;;;;;;;6.55;5.90;;;-6.10;99.90;;;;;;4836791;29;20050;-79
2022/03/02 04:02:13;;;;;;;10.65;6.38;;;-6.10;99.90;;;;;;4837979;29;20046;-79
2022/03/02 04:04:41;;;;;;;6.35;5.72;;;-6.00;99.90;;;;;;4837135;29;20053;-78
2022/03/02 04:07:09;;;;;;;10.75;6.55;;;-5.90;99.90;;;;;;4837786;29;20481;-79
2022/03/02 04:09:38;;;;;;;10.85;5.35;;;-5.70;99.90;;;;;;4846577;29;20064;-79
2022/03/02 04:12:06;;;;;;;8.25;6.00;;;-5.60;99.90;;;;;;4839363;29;20543;-79
2022/03/02 04:14:33;;;;;;;14.20;6.18;;;-5.40;99.90;;;;;;4845742;29;20061;-79
2022/03/02 04:17:22;;;;;;;6.55;5.97;;;-5.40;99.90;;;;;;4847492;29;20058;-79
2022/03/02 04:20:51;;;;;;;7.43;4.72;;;-5.40;99.90;;;;;;4817968;29;20053;-79
2022/03/02 04:24:13;;;;;;;5.55;5.05;;;-5.30;99.90;;;;;;4836935;29;20058;-79
2022/03/02 04:27:11;;;;;;;6.95;5.00;;;-5.20;99.90;;;;;;4837600;29;20050;-79
2022/03/02 04:29:39;;;;;;;9.82;5.97;;;-5.20;99.90;;;;;;4836402;29;20578;-79
2022/03/02 04:32:07;;;;;;;6.10;5.50;;;-5.20;99.90;;;;;;4836688;29;20050;-79
2022/03/02 04:34:35;;;;;;;7.45;5.30;;;-5.30;99.90;;;;;;4836557;29;20050;-79
2022/03/02 04:37:03;;;;;;;10.35;6.95;;;-5.30;99.90;;;;;;4836433;29;20054;-79
2022/03/02 04:39:31;;;;;;;6.05;5.43;;;-5.60;99.90;;;;;;4836151;29;20050;-79
2022/03/02 04:41:59;;;;;;;10.20;6.35;;;-5.70;99.90;;;;;;4837442;29;20049;-79
2022/03/02 04:44:27;;;;;;;12.50;6.78;;;-5.60;99.90;;;;;;4855400;29;20052;-79
2022/03/02 04:46:55;;;;;;;5.95;4.72;;;-5.40;99.90;;;;;;4855904;29;20411;-79
2022/03/02 04:49:23;;;;;;;4.22;3.92;;;-5.20;99.90;;;;;;4837914;29;20060;-79
2022/03/02 04:51:51;;;;;;;9.43;7.50;;;-5.00;99.90;;;;;;4854667;29;20052;-79
2022/03/02 04:57:06;;;;;;;6.45;5.38;;;-4.70;99.90;;;;;;4838469;29;20056;-79
2022/03/02 04:59:34;;;;;;;5.22;4.72;;;-4.60;99.90;;;;;;4854777;29;20092;-79
2022/03/02 05:02:03;;;;;;;5.30;4.47;;;-4.40;99.90;;;;;;4855269;29;20065;-79
2022/03/02 05:04:31;;;;;;;8.70;5.65;;;-4.50;99.90;;;;;;4854679;29;20064;-79
2022/03/02 05:06:58;;;;;;;6.13;5.53;;;-4.50;99.90;;;;;;4855585;29;20053;-79
2022/03/02 05:09:26;;;;;;;7.57;6.80;;;-4.50;99.90;;;;;;4854311;29;20058;-79
2022/03/02 05:11:56;;;;;;;9.70;5.32;;;-4.60;99.90;;;;;;4854421;29;20385;-79
2022/03/02 05:14:26;;;;;;;8.85;6.40;;;-4.70;99.90;;;;;;4855162;29;20057;-79
2022/03/02 05:16:54;;;;;;;7.60;5.35;;;-4.90;99.90;;;;;;4854361;29;20060;-79
2022/03/02 05:19:21;;;;;;;6.63;4.90;;;-5.10;99.90;;;;;;4851868;29;20056;-79
2022/03/02 05:21:50;;;;;;;10.02;5.63;;;-5.10;99.90;;;;;;4844610;29;20061;-79
2022/03/02 05:24:17;;;;;;;7.95;5.35;;;-5.10;99.90;;;;;;4854709;29;20701;-79
2022/03/02 05:26:45;;;;;;;10.80;7.28;;;-5.10;99.90;;;;;;4854652;29;20061;-79
2022/03/02 05:29:14;;;;;;;7.13;5.65;;;-5.00;99.90;;;;;;4853147;29;20069;-79
2022/03/02 05:31:41;;;;;;;8.48;6.05;;;-4.90;99.90;;;;;;4854577;29;20053;-79
2022/03/02 05:34:09;;;;;;;8.60;5.90;;;-4.80;99.90;;;;;;4855127;29;20057;-79
2022/03/02 05:36:37;;;;;;;6.70;6.07;;;-4.90;99.90;;;;;;4853924;29;20049;-79
2022/03/02 05:39:05;;;;;;;6.28;5.45;;;-4.90;99.90;;;;;;4854770;29;20061;-79
2022/03/02 05:41:33;;;;;;;11.02;5.22;;;-5.00;99.90;;;;;;4848917;29;20060;-79
2022/03/02 05:44:02;;;;;;;8.23;6.05;;;-5.00;99.90;;;;;;4838580;29;20057;-79
2022/03/02 05:46:29;;;;;;;8.18;5.60;;;-4.90;99.90;;;;;;4851581;29;20061;-79
2022/03/02 05:48:57;;;;;;;7.45;5.50;;;-4.80;99.90;;;;;;4852555;29;20139;-79
2022/03/02 05:51:25;;;;;;;5.47;4.97;;;-4.70;99.90;;;;;;4836229;29;20050;-78
2022/03/02 05:53:53;;;;;;;7.47;6.35;;;-4.60;99.90;;;;;;4835993;29;20050;-78
2022/03/02 05:56:23;;;;;;;7.93;6.07;;;-4.50;99.90;;;;;;4834918;29;20058;-78
2022/03/02 05:58:53;;;;;;;7.85;6.03;;;-4.50;99.90;;;;;;4836169;29;20054;-79
2022/03/02 06:01:25;;;;;;;8.45;6.45;;;-4.50;99.90;;;;;;4835694;29;20463;-79
2022/03/02 06:03:53;;;;;;;7.75;6.30;;;-4.50;99.90;;;;;;4836012;29;20049;-79
2022/03/02 06:06:39;;;;;;;9.90;6.25;;;-4.50;99.90;;;;;;4836087;29;20058;-79
2022/03/02 06:09:09;;;;;;;9.60;6.25;;;-4.50;99.90;;;;;;4835638;29;20073;-78
2022/03/02 06:11:38;;;;;;;8.20;5.35;;;-4.40;99.90;;;;;;4835155;29;20072;-78
2022/03/02 06:14:07;;;;;;;8.57;6.28;;;-4.40;99.90;;;;;;4836606;29;20058;-79
2022/03/02 06:16:36;;;;;;;14.77;5.90;;;-4.50;99.90;;;;;;4835736;29;20056;-79
2022/03/02 06:19:06;;;;;;;8.75;7.60;;;-4.60;99.90;;;;;;4835896;29;20603;-79
2022/03/02 06:21:37;;;;;;;5.75;5.25;;;-4.70;99.90;;;;;;4835823;29;20504;-79
2022/03/02 06:24:06;;;;;;;7.65;6.93;;;-4.80;99.90;;;;;;4835895;29;20070;-78
2022/03/02 06:26:34;;;;;;;10.35;5.88;;;-4.80;99.90;;;;;;4835575;29;20049;-79
2022/03/02 06:29:02;;;;;;;6.55;5.85;;;-4.70;99.90;;;;;;4822823;29;20050;-79
2022/03/02 06:31:31;;;;;;;8.27;7.32;;;-4.60;99.90;;;;;;4843651;29;20046;-79
2022/03/02 06:34:00;;;;;;;10.45;6.82;;;-4.50;99.90;;;;;;4835892;29;20484;-79
2022/03/02 06:36:28;;;;;;;8.20;6.40;;;-4.30;99.90;;;;;;4818514;29;20054;-79
2022/03/02 06:38:56;;;;;;;6.55;5.97;;;-4.10;99.90;;;;;;4834560;29;20077;-79
2022/03/02 06:41:45;;;;;;;7.07;4.82;;;-4.00;99.90;;;;;;4834680;29;20050;-79
2022/03/02 06:44:40;;;;;;;16.30;7.05;;;-3.70;99.90;;;;;;4852257;29;20046;-79
2022/03/02 06:47:10;;;;;;;7.25;5.72;;;-3.50;99.90;;;;;;4854681;29;20057;-79
2022/03/02 06:50:09;;;;;;;7.38;6.38;;;-3.30;99.90;;;;;;4844436;29;20058;-86
2022/03/02 06:52:48;;;;;;;9.57;6.53;;;-3.00;99.90;;;;;;4820733;29;20504;-79
2022/03/02 06:55:21;;;;;;;7.80;5.85;;;-2.90;99.90;;;;;;4819902;29;20065;-79
2022/03/02 06:57:57;;;;;;;9.77;7.30;;;-2.80;99.90;;;;;;4838401;29;20054;-79
2022/03/02 07:00:25;;;;;;;9.13;6.70;;;-2.80;99.90;;;;;;4850003;29;20053;-79
2022/03/02 07:03:06;;;;;;;11.43;7.70;;;-2.70;99.90;;;;;;4839801;29;20049;-79
2022/03/02 07:05:34;;;;;;;10.77;6.68;;;-2.50;99.90;;;;;;4839228;29;20054;-79
2022/03/02 07:08:03;;;;;;;7.32;5.50;;;-2.50;99.90;;;;;;4839154;29;20501;-79
2022/03/02 07:10:36;;;;;;;10.65;7.45;;;-2.40;99.90;;;;;;4839357;29;20092;-79
2022/03/02 07:13:05;;;;;;;8.13;6.32;;;-2.30;99.90;;;;;;4839342;29;20523;-80
2022/03/02 07:15:34;;;;;;;8.43;5.50;;;-2.20;99.90;;;;;;4838981;29;20061;-79
2022/03/02 07:18:04;;;;;;;20.80;8.57;;;-2.00;99.90;;;;;;4839307;29;20050;-80
2022/03/02 07:20:33;;;;;;;21.40;9.25;;;-1.70;99.90;;;;;;4839135;29;20050;-79
2022/03/02 07:23:02;;;;;;;12.93;7.63;;;-1.70;99.90;;;;;;4839478;29;20685;-79
2022/03/02 07:25:36;;;;;;;9.07;7.05;;;-1.80;99.90;;;;;;4841009;29;20084;-79
2022/03/02 07:28:06;;;;;;;11.68;8.23;;;-1.70;99.90;;;;;;4840054;29;20053;-79
2022/03/02 07:30:34;;;;;;;6.55;5.78;;;-1.50;99.90;;;;;;4857713;29;20056;-79
2022/03/02 07:33:03;;;;;;;7.80;7.07;;;-1.20;99.90;;;;;;4840784;29;20069;-79
2022/03/02 07:35:37;;;;;;;10.30;6.57;;;-1.00;99.90;;;;;;4836968;29;20049;-78
2022/03/02 07:38:06;;;;;;;10.40;6.78;;;-0.70;99.90;;;;;;4847537;29;20053;-79
2022/03/02 07:40:34;;;;;;;10.13;6.28;;;-0.50;99.90;;;;;;4838886;29;20076;-80
2022/03/02 07:43:03;;;;;;;9.40;5.93;;;-0.10;99.90;;;;;;4840797;29;20065;-80
2022/03/02 07:45:31;;;;;;;9.25;6.82;;;0.20;99.90;;;;;;4839979;29;20073;-80
2022/03/02 07:47:58;;;;;;;11.07;6.70;;;0.40;99.90;;;;;;4838773;29;20054;-79
2022/03/02 07:50:26;;;;;;;8.77;7.65;;;0.50;99.90;;;;;;4824887;29;20068;-80
2022/03/02 07:52:56;;;;;;;10.88;6.45;;;0.50;99.90;;;;;;4856121;29;20532;-79
2022/03/02 07:55:24;;;;;;;14.32;8.98;;;0.60;99.90;;;;;;4839995;29;20053;-80
2022/03/02 07:57:55;;;;;;;9.85;7.07;;;0.70;99.90;;;;;;4855995;29;20053;-79
2022/03/02 08:00:25;;;;;;;15.55;7.95;;;0.90;99.90;;;;;;4839735;29;20046;-79
2022/03/02 08:02:57;;;;;;;9.57;7.25;;;1.10;99.90;;;;;;4856729;29;20050;-79
2022/03/02 08:05:26;;;;;;;7.93;6.53;;;1.30;99.90;;;;;;4855692;29;20058;-79
2022/03/02 08:07:54;;;;;;;8.95;7.25;;;1.30;99.90;;;;;;4856166;29;20053;-80
2022/03/02 08:10:22;;;;;;;10.80;6.72;;;1.30;99.90;;;;;;4855773;29;20046;-80
2022/03/02 08:12:50;;;;;;;7.57;6.38;;;1.40;99.90;;;;;;4831166;29;20061;-80
2022/03/02 08:15:18;;;;;;;11.88;7.97;;;1.50;99.90;;;;;;4845696;29;20596;-80
2022/03/02 08:17:48;;;;;;;7.53;6.13;;;1.40;99.90;;;;;;4828927;29;20045;-80
2022/03/02 08:20:17;;;;;;;7.35;6.03;;;1.50;99.90;;;;;;4831832;29;20049;-79
2022/03/02 08:22:51;;;;;;;13.25;7.10;;;1.50;99.90;;;;;;4847289;29;20045;-80
2022/03/02 08:25:23;;;;;;;6.50;5.63;;;1.60;99.90;;;;;;4834770;29;20046;-80
2022/03/02 08:27:53;;;;;;;8.15;5.43;;;1.50;99.90;;;;;;4848294;29;20084;-80
2022/03/02 08:30:22;;;;;;;7.68;5.75;;;1.60;99.90;;;;;;4815091;29;20069;-79
2022/03/02 08:32:54;;;;;;;6.53;5.88;;;1.70;99.90;;;;;;4826519;29;20050;-79
2022/03/02 08:35:24;;;;;;;6.32;5.72;;;1.80;99.90;;;;;;4846165;29;20056;-80
2022/03/02 08:37:54;;;;;;;11.07;6.32;;;1.90;99.90;;;;;;4837962;29;20046;-80
2022/03/02 08:40:27;;;;;;;5.78;5.15;;;2.00;99.90;;;;;;4836943;29;20048;-80
2022/03/02 08:42:57;;;;;;;6.28;4.45;;;2.20;99.90;;;;;;4831349;29;20052;-80
2022/03/02 08:45:26;;;;;;;7.88;5.95;;;2.10;99.90;;;;;;4849024;29;20057;-80
2022/03/02 08:47:54;;;;;;;9.50;6.88;;;1.90;99.90;;;;;;4855708;29;20053;-80
2022/03/02 08:50:22;;;;;;;7.00;5.18;;;2.00;99.90;;;;;;4846538;29;20065;-80
2022/03/02 08:52:53;;;;;;;6.85;5.10;;;1.90;99.90;;;;;;4837450;29;20487;-81
2022/03/02 08:55:22;;;;;;;8.37;6.40;;;1.80;99.90;;;;;;4817077;29;20056;-80
2022/03/02 08:57:53;;;;;;;6.05;4.45;;;1.70;99.90;;;;;;4829608;29;20916;-80
2022/03/02 09:00:20;;;;;;;6.77;5.83;;;1.80;99.90;;;;;;4842163;29;20491;-80
2022/03/02 09:02:52;;;;;;;5.40;4.72;;;1.80;99.90;;;;;;4813478;29;20058;-80
2022/03/02 09:05:20;;;;;;;6.03;4.32;;;1.90;99.90;;;;;;4826321;29;20817;-81
2022/03/02 09:07:48;;;;;;;7.28;5.28;;;2.20;99.90;;;;;;4833024;29;20064;-81
2022/03/02 09:10:17;;;;;;;12.68;6.57;;;2.30;99.90;;;;;;4838208;29;20072;-81
2022/03/02 09:12:45;;;;;;;6.97;4.75;;;2.60;99.90;;;;;;4854169;29;20073;-81
2022/03/02 09:15:13;;;;;;;7.45;5.20;;;2.70;99.90;;;;;;4855635;29;20479;-81
2022/03/02 09:17:41;;;;;;;11.80;5.53;;;2.80;99.90;;;;;;4850327;29;20801;-80
2022/03/02 09:20:10;;;;;;;5.60;4.88;;;3.00;99.90;;;;;;4845273;29;20053;-82
2022/03/02 09:22:41;;;;;;;8.52;5.65;;;3.10;99.90;;;;;;4832062;29;20056;-82
2022/03/02 09:25:09;;;;;;;6.78;6.15;;;3.10;99.90;;;;;;4845253;29;20057;-80
2022/03/02 09:27:37;;;;;;;8.05;6.18;;;3.10;99.90;;;;;;4848120;29;20057;-81
2022/03/02 09:30:08;;;;;;;9.18;7.70;;;3.20;99.90;;;;;;4844350;29;20061;-81
2022/03/02 09:32:40;;;;;;;19.08;6.63;;;3.20;99.90;;;;;;4834286;29;20513;-82
2022/03/02 09:35:14;;;;;;;13.73;7.82;;;3.00;99.90;;;;;;4846041;29;20053;-82
2022/03/02 09:37:49;;;;;;;6.43;5.90;;;3.10;99.90;;;;;;4814102;29;20063;-79
2022/03/02 09:40:26;;;;;;;15.25;5.85;;;3.20;99.90;;;;;;4847327;29;20566;-78
2022/03/02 09:43:05;;;;;;;7.28;5.30;;;3.40;99.90;;;;;;4824551;29;20479;-77
2022/03/02 09:45:34;;;;;;;8.50;6.13;;;3.60;99.90;;;;;;4853295;29;20045;-78
2022/03/02 09:48:04;;;;;;;5.88;5.38;;;3.60;99.90;;;;;;4851621;29;20506;-75
2022/03/02 09:50:35;;;;;;;8.13;7.05;;;3.70;99.90;;;;;;4828333;29;20399;-84
2022/03/02 09:53:12;;;;;;;10.32;6.53;;;3.80;99.90;;;;;;4848216;29;20049;-81
2022/03/02 09:55:41;;;;;;;6.97;6.32;;;4.10;99.90;;;;;;4847744;29;20053;-83
2022/03/02 09:58:14;;;;;;;10.68;5.63;;;4.30;99.90;;;;;;4848654;29;20065;-83
2022/03/02 10:00:47;;;;;;;7.97;6.65;;;4.40;99.90;;;;;;4837846;29;20062;-78
2022/03/02 10:03:19;;;;;;;15.65;6.72;;;4.30;99.90;;;;;;4837607;29;20510;-77
2022/03/02 10:05:49;;;;;;;8.25;5.78;;;4.50;99.90;;;;;;4854150;29;20049;-83
2022/03/02 10:08:23;;;;;;;7.32;6.63;;;4.60;99.90;;;;;;4807226;29;20061;-83
2022/03/02 10:10:51;;;;;;;6.20;5.63;;;4.60;99.70;;;;;;4837479;29;20057;-83
2022/03/02 10:13:19;;;;;;;6.90;4.65;;;4.70;99.90;;;;;;4822817;29;20050;-78
2022/03/02 10:15:47;;;;;;;6.88;6.20;;;4.80;98.30;;;;;;4853913;29;20049;-83
2022/03/02 10:18:17;;;;;;;9.73;6.95;;;4.80;97.60;;;;;;4849632;29;20072;-84
2022/03/02 10:20:49;;;;;;;7.10;6.40;;;4.80;99.00;;;;;;4822151;29;20061;-83
2022/03/02 10:23:23;;;;;;;7.88;6.60;;;5.00;97.80;;;;;;4823375;29;20383;-83
2022/03/02 10:26:19;;;;;;;5.75;5.05;;;5.20;95.90;;;;;;4836880;29;20042;-83
2022/03/02 10:29:03;;;;;;;7.20;6.32;;;5.30;94.30;;;;;;4822026;29;20588;-83
2022/03/02 10:31:45;;;;;;;7.93;5.68;;;5.20;95.80;;;;;;4823279;29;20058;-83
2022/03/02 10:34:29;;;;;;;12.10;6.28;;;5.00;96.20;;;;;;4811692;29;20053;-81
2022/03/02 10:37:08;;;;;;;7.68;6.20;;;4.90;95.50;;;;;;4815038;29;20046;-84
2022/03/02 10:40:17;;;;;;;5.63;5.05;;;4.60;95.80;;;;;;4807084;29;20054;-79
2022/03/02 10:42:54;;;;;;;7.00;5.90;;;4.20;97.80;;;;;;4814708;29;20049;-84
2022/03/02 10:45:23;;;;;;;7.47;6.43;;;4.20;95.70;;;;;;4818039;29;20045;-83
2022/03/02 10:47:54;;;;;;;6.72;5.88;;;4.20;96.10;;;;;;4813538;29;20100;-80
2022/03/02 10:50:25;;;;;;;7.40;5.38;;;4.30;94.60;;;;;;4833873;29;20136;-85
2022/03/02 10:52:55;;;;;;;6.00;4.97;;;4.60;93.90;;;;;;4825826;29;20042;-84
2022/03/02 10:55:24;;;;;;;7.80;7.07;;;4.50;95.10;;;;;;4809878;29;20050;-78
2022/03/02 10:57:57;;;;;;;8.90;6.32;;;4.50;93.40;;;;;;4844744;29;20045;-77
2022/03/02 11:00:26;;;;;;;6.43;5.90;;;4.50;93.30;;;;;;4830443;29;20038;-83
2022/03/02 11:02:59;;;;;;;8.65;4.88;;;4.60;93.80;;;;;;4817552;29;20053;-83
2022/03/02 11:05:30;;;;;;;6.65;5.65;;;4.90;92.30;;;;;;4820055;29;20061;-78
2022/03/02 11:07:59;;;;;;;6.22;5.55;;;5.00;91.50;;;;;;4826699;29;20431;-77
2022/03/02 11:10:37;;;;;;;8.75;6.60;;;5.10;91.60;;;;;;4816804;29;20412;-87
2022/03/02 11:13:12;;;;;;;7.13;5.13;;;5.20;91.30;;;;;;4820017;29;20057;-87
2022/03/02 11:15:50;;;;;;;4.30;3.90;;;5.60;90.60;;;;;;4857435;29;20049;-76
2022/03/02 11:18:36;;;;;;;4.70;3.72;;;5.90;81.60;;;;;;4857159;29;20534;-74
2022/03/02 11:21:14;;;;;;;11.10;5.65;;;6.00;76.00;;;;;;4839716;29;20056;-77
2022/03/02 11:23:50;;;;;;;7.78;5.93;;;6.20;90.00;;;;;;4834663;29;20053;-75
2022/03/02 11:26:28;;;;;;;5.63;4.57;;;6.00;90.10;;;;;;4841321;29;20046;-76
2022/03/02 11:29:06;;;;;;;5.63;5.15;;;5.90;92.30;;;;;;4832473;29;20381;-77
2022/03/02 11:31:41;;;;;;;4.55;3.67;;;6.20;89.90;;;;;;4840820;29;20054;-76
2022/03/02 11:34:17;;;;;;;5.07;4.63;;;6.30;78.20;;;;;;4841107;29;20057;-76
2022/03/02 11:36:51;;;;;;;4.22;3.85;;;6.60;78.40;;;;;;4856145;29;20064;-76
2022/03/02 11:39:23;;;;;;;5.97;5.20;;;6.40;77.10;;;;;;4856402;29;20049;-76
2022/03/02 11:42:02;;;;;;;11.00;4.88;;;6.50;76.70;;;;;;4839009;29;20060;-76
2022/03/02 11:44:41;;;;;;;13.95;5.22;;;6.50;76.60;;;;;;4838011;29;20057;-76
2022/03/02 11:47:11;;;;;;;11.43;6.88;;;6.50;76.50;;;;;;4838572;29;20061;-78
2022/03/02 11:49:41;;;;;;;4.97;4.57;;;6.50;75.00;;;;;;4885211;24;20065;-77
2022/03/02 11:52:12;;;;;;;5.75;4.53;;;6.50;75.50;;;;;;4858374;29;20057;-78
2022/03/02 11:54:40;;;;;;;6.22;4.78;;;6.50;72.60;;;;;;4874342;29;20061;-77
2022/03/02 11:57:08;;;;;;;5.68;5.18;;;6.60;78.30;;;;;;4874756;29;20048;-76
2022/03/02 11:59:38;;;;;;;6.22;4.13;;;6.70;73.10;;;;;;4874079;29;20472;-76
2022/03/02 12:02:39;;;;;;;5.53;4.90;;;6.90;75.50;;;;;;4875117;29;20057;-76
2022/03/02 12:05:17;;;;;;;8.13;5.68;;;7.30;74.90;;;;;;4860958;29;20050;-75
2022/03/02 12:07:47;;;;;;;8.45;7.03;;;7.40;84.00;;;;;;4834308;29;20410;-75
2022/03/02 12:10:23;;;;;;;8.38;5.80;;;7.40;81.80;;;;;;4867546;29;20065;-75
2022/03/02 12:12:53;;;;;;;6.93;5.15;;;7.30;78.90;;;;;;4867155;29;20045;-75
2022/03/02 12:15:39;;;;;;;5.53;4.43;;;7.30;77.00;;;;;;4847201;29;20054;-77
2022/03/02 12:18:08;;;;;;;;;;;7.40;78.00;;;;;;4849784;29;20049;-79
2022/03/02 12:21:01;;;;;;;6.32;4.10;;;7.50;81.50;;;;;;4835557;29;19928;-77
2022/03/02 12:23:34;;;;;;;5.88;5.45;;;7.30;73.50;;;;;;4831658;29;20376;-78
2022/03/02 12:26:04;;;;;;;6.63;5.05;;;7.20;76.90;;;;;;4854450;29;20923;-81
2022/03/02 12:28:32;;;;;;;6.97;5.53;;;7.20;77.60;;;;;;4838945;29;20503;-77
2022/03/02 12:31:11;;;;;;;8.15;4.88;;;7.30;77.10;;;;;;4846678;29;20499;-77
2022/03/02 12:33:39;;;;;;;7.57;5.43;;;7.20;80.30;;;;;;4874139;29;20049;-74
2022/03/02 12:36:27;;;;;;;5.60;5.05;;;7.10;79.50;;;;;;4873226;29;20060;-74
2022/03/02 12:39:10;;;;;;;10.88;4.70;;;7.00;78.40;;;;;;4867161;29;20796;-74
2022/03/02 12:41:38;;;;;;;6.80;5.18;;;6.90;77.30;;;;;;4873278;29;20049;-74
2022/03/02 12:44:06;;;;;;;5.55;4.95;;;6.70;76.10;;;;;;4857343;29;20048;-73
2022/03/02 12:46:36;;;;;;;4.07;3.58;;;6.60;77.30;;;;;;4861537;29;20057;-74
2022/03/02 12:49:06;;;;;;;5.43;4.45;;;6.70;76.80;;;;;;4845176;29;20069;-73
2022/03/02 12:51:37;;;;;;;9.00;6.30;;;6.70;75.70;;;;;;4840466;29;20056;-73
2022/03/02 12:54:06;;;;;;;4.80;3.97;;;6.60;74.00;;;;;;4855261;29;20053;-73
2022/03/02 12:56:34;;;;;;;5.65;5.20;;;6.50;71.10;;;;;;4870185;29;20060;-74
2022/03/02 12:59:02;;;;;;;6.50;3.88;;;6.50;74.00;;;;;;4858383;29;20065;-74
2022/03/02 13:01:30;;;;;;;7.05;6.13;;;6.40;70.10;;;;;;4863348;29;20049;-75
2022/03/02 13:04:01;;;;;;;6.50;5.57;;;6.20;68.80;;;;;;4846289;29;20052;-75
2022/03/02 13:06:38;;;;;;;6.70;5.38;;;6.20;70.50;;;;;;4866432;29;20692;-75
2022/03/02 13:09:16;;;;;;;5.40;4.30;;;6.20;70.80;;;;;;4872732;29;20065;-73
2022/03/02 13:11:44;;;;;;;8.95;4.68;;;6.20;71.80;;;;;;4840650;29;20824;-74
2022/03/02 13:14:32;;;;;;;10.38;4.57;;;6.20;72.90;;;;;;4855035;29;20495;-74
2022/03/02 13:17:17;;;;;;;5.15;4.53;;;6.10;71.90;;;;;;4863948;29;20857;-74